sensor_id;sensor_type;location;lat;lon;timestamp;P1;durP1;ratioP1;P2;durP2;ratioP2
42666;SDS011;28280;49.646;14.130;2023-04-06T00:06:31;4.53;;;2.90;;
42666;SDS011;28280;49.646;14.130;2023-04-06T00:16:55;6.90;;;3.70;;
42666;SDS011;28280;49.646;14.130;2023-04-06T00:27:17;5.47;;;3.33;;
42666;SDS011;28280;49.646;14.130;2023-04-06T00:37:38;5.57;;;3.60;;
42666;SDS011;28280;49.646;14.130;2023-04-06T00:48:00;6.00;;;3.35;;
42666;SDS011;28280;49.646;14.130;2023-04-06T00:58:23;5.60;;;3.22;;
42666;SDS011;28280;49.646;14.130;2023-04-06T01:08:53;4.80;;;3.42;;
42666;SDS011;28280;49.646;14.130;2023-04-06T01:19:17;6.72;;;3.40;;
42666;SDS011;28280;49.646;14.130;2023-04-06T01:29:43;5.28;;;3.20;;
42666;SDS011;28280;49.646;14.130;2023-04-06T01:40:13;7.78;;;3.92;;
42666;SDS011;28280;49.646;14.130;2023-04-06T01:50:40;7.47;;;3.83;;
42666;SDS011;28280;49.646;14.130;2023-04-06T02:01:05;8.52;;;4.60;;
42666;SDS011;28280;49.646;14.130;2023-04-06T02:11:39;5.63;;;3.67;;
42666;SDS011;28280;49.646;14.130;2023-04-06T02:22:01;6.90;;;4.05;;
42666;SDS011;28280;49.646;14.130;2023-04-06T02:32:22;5.95;;;3.75;;
42666;SDS011;28280;49.646;14.130;2023-04-06T02:42:44;7.80;;;3.88;;
42666;SDS011;28280;49.646;14.130;2023-04-06T02:53:09;6.65;;;3.80;;
42666;SDS011;28280;49.646;14.130;2023-04-06T03:03:32;6.30;;;3.70;;
42666;SDS011;28280;49.646;14.130;2023-04-06T03:13:55;8.25;;;3.97;;
42666;SDS011;28280;49.646;14.130;2023-04-06T03:24:16;7.00;;;4.00;;
42666;SDS011;28280;49.646;14.130;2023-04-06T03:34:38;7.40;;;4.22;;
42666;SDS011;28280;49.646;14.130;2023-04-06T03:45:01;6.20;;;3.95;;
42666;SDS011;28280;49.646;14.130;2023-04-06T03:55:24;7.65;;;4.18;;
42666;SDS011;28280;49.646;14.130;2023-04-06T04:05:45;7.75;;;4.00;;
42666;SDS011;28280;49.646;14.130;2023-04-06T04:16:07;6.75;;;4.07;;
42666;SDS011;28280;49.646;14.130;2023-04-06T04:26:29;5.88;;;3.78;;
42666;SDS011;28280;49.646;14.130;2023-04-06T04:36:51;7.75;;;4.68;;
42666;SDS011;28280;49.646;14.130;2023-04-06T04:47:22;8.43;;;4.22;;
42666;SDS011;28280;49.646;14.130;2023-04-06T04:57:43;9.00;;;4.53;;
42666;SDS011;28280;49.646;14.130;2023-04-06T05:08:05;7.38;;;4.35;;
42666;SDS011;28280;49.646;14.130;2023-04-06T05:18:44;7.15;;;4.22;;
42666;SDS011;28280;49.646;14.130;2023-04-06T05:29:06;8.32;;;4.63;;
42666;SDS011;28280;49.646;14.130;2023-04-06T05:39:30;6.63;;;4.10;;
42666;SDS011;28280;49.646;14.130;2023-04-06T05:49:53;8.57;;;4.63;;
42666;SDS011;28280;49.646;14.130;2023-04-06T06:00:33;7.18;;;4.20;;
42666;SDS011;28280;49.646;14.130;2023-04-06T06:10:59;6.60;;;3.85;;
42666;SDS011;28280;49.646;14.130;2023-04-06T06:21:21;7.10;;;4.45;;
42666;SDS011;28280;49.646;14.130;2023-04-06T06:31:42;8.02;;;4.20;;
42666;SDS011;28280;49.646;14.130;2023-04-06T06:42:05;7.35;;;4.47;;
42666;SDS011;28280;49.646;14.130;2023-04-06T06:53:05;6.47;;;4.18;;
42666;SDS011;28280;49.646;14.130;2023-04-06T07:03:27;9.50;;;5.32;;
42666;SDS011;28280;49.646;14.130;2023-04-06T07:13:49;7.60;;;4.43;;
42666;SDS011;28280;49.646;14.130;2023-04-06T07:24:10;6.43;;;3.88;;
42666;SDS011;28280;49.646;14.130;2023-04-06T07:34:35;7.20;;;4.32;;
42666;SDS011;28280;49.646;14.130;2023-04-06T07:44:56;7.47;;;4.88;;
42666;SDS011;28280;49.646;14.130;2023-04-06T07:55:18;8.60;;;3.83;;
42666;SDS011;28280;49.646;14.130;2023-04-06T08:05:39;6.38;;;3.75;;
42666;SDS011;28280;49.646;14.130;2023-04-06T08:16:00;7.95;;;4.00;;
42666;SDS011;28280;49.646;14.130;2023-04-06T08:26:21;8.90;;;3.30;;
42666;SDS011;28280;49.646;14.130;2023-04-06T08:36:43;6.80;;;3.25;;
42666;SDS011;28280;49.646;14.130;2023-04-06T08:47:04;7.00;;;3.60;;
42666;SDS011;28280;49.646;14.130;2023-04-06T08:57:26;7.00;;;3.22;;
42666;SDS011;28280;49.646;14.130;2023-04-06T09:07:47;4.65;;;2.88;;
42666;SDS011;28280;49.646;14.130;2023-04-06T09:18:08;4.90;;;2.65;;
42666;SDS011;28280;49.646;14.130;2023-04-06T09:28:40;4.18;;;2.78;;
42666;SDS011;28280;49.646;14.130;2023-04-06T09:39:05;3.60;;;2.55;;
42666;SDS011;28280;49.646;14.130;2023-04-06T09:49:30;5.05;;;2.78;;
42666;SDS011;28280;49.646;14.130;2023-04-06T10:10:33;4.40;;;2.83;;
42666;SDS011;28280;49.646;14.130;2023-04-06T10:21:03;4.35;;;2.15;;
42666;SDS011;28280;49.646;14.130;2023-04-06T10:31:27;3.22;;;2.10;;
42666;SDS011;28280;49.646;14.130;2023-04-06T10:41:49;3.35;;;2.00;;
42666;SDS011;28280;49.646;14.130;2023-04-06T10:52:11;2.60;;;1.70;;
42666;SDS011;28280;49.646;14.130;2023-04-06T11:02:35;2.75;;;1.67;;
42666;SDS011;28280;49.646;14.130;2023-04-06T11:12:58;2.38;;;1.65;;
42666;SDS011;28280;49.646;14.130;2023-04-06T11:23:23;2.80;;;1.98;;
42666;SDS011;28280;49.646;14.130;2023-04-06T11:33:46;2.90;;;1.97;;
42666;SDS011;28280;49.646;14.130;2023-04-06T11:44:07;3.33;;;1.73;;
42666;SDS011;28280;49.646;14.130;2023-04-06T11:54:35;3.63;;;1.73;;
42666;SDS011;28280;49.646;14.130;2023-04-06T12:04:58;2.22;;;1.50;;
42666;SDS011;28280;49.646;14.130;2023-04-06T12:15:20;3.17;;;2.00;;
42666;SDS011;28280;49.646;14.130;2023-04-06T12:25:42;2.85;;;2.10;;
42666;SDS011;28280;49.646;14.130;2023-04-06T12:36:03;3.03;;;1.90;;
42666;SDS011;28280;49.646;14.130;2023-04-06T12:46:25;2.75;;;1.77;;
42666;SDS011;28280;49.646;14.130;2023-04-06T12:56:46;3.45;;;1.60;;
42666;SDS011;28280;49.646;14.130;2023-04-06T13:07:08;2.00;;;1.50;;
42666;SDS011;28280;49.646;14.130;2023-04-06T13:17:29;2.35;;;1.58;;
42666;SDS011;28280;49.646;14.130;2023-04-06T13:27:51;2.33;;;1.70;;
42666;SDS011;28280;49.646;14.130;2023-04-06T13:38:12;2.40;;;1.30;;
42666;SDS011;28280;49.646;14.130;2023-04-06T13:48:33;2.13;;;1.50;;
42666;SDS011;28280;49.646;14.130;2023-04-06T13:58:55;3.42;;;1.58;;
42666;SDS011;28280;49.646;14.130;2023-04-06T14:09:17;2.85;;;1.73;;
42666;SDS011;28280;49.646;14.130;2023-04-06T14:19:38;2.50;;;1.55;;
42666;SDS011;28280;49.646;14.130;2023-04-06T14:30:00;4.05;;;1.95;;
42666;SDS011;28280;49.646;14.130;2023-04-06T14:40:21;2.58;;;1.65;;
42666;SDS011;28280;49.646;14.130;2023-04-06T14:50:52;2.50;;;1.83;;
42666;SDS011;28280;49.646;14.130;2023-04-06T15:01:14;2.70;;;1.80;;
42666;SDS011;28280;49.646;14.130;2023-04-06T15:11:36;2.90;;;1.77;;
42666;SDS011;28280;49.646;14.130;2023-04-06T15:21:57;3.00;;;1.90;;
42666;SDS011;28280;49.646;14.130;2023-04-06T15:32:20;3.97;;;1.77;;
42666;SDS011;28280;49.646;14.130;2023-04-06T15:42:42;3.42;;;1.90;;
42666;SDS011;28280;49.646;14.130;2023-04-06T15:53:03;3.60;;;1.85;;
42666;SDS011;28280;49.646;14.130;2023-04-06T16:03:25;3.60;;;1.92;;
42666;SDS011;28280;49.646;14.130;2023-04-06T16:13:46;2.25;;;1.70;;
42666;SDS011;28280;49.646;14.130;2023-04-06T16:24:15;2.63;;;1.88;;
42666;SDS011;28280;49.646;14.130;2023-04-06T16:34:36;1.98;;;1.65;;
42666;SDS011;28280;49.646;14.130;2023-04-06T16:44:58;2.35;;;1.67;;
42666;SDS011;28280;49.646;14.130;2023-04-06T16:55:19;3.17;;;1.70;;
42666;SDS011;28280;49.646;14.130;2023-04-06T17:05:41;2.38;;;1.80;;
42666;SDS011;28280;49.646;14.130;2023-04-06T17:16:02;3.28;;;2.00;;
42666;SDS011;28280;49.646;14.130;2023-04-06T17:26:23;2.03;;;1.60;;
42666;SDS011;28280;49.646;14.130;2023-04-06T17:36:45;4.50;;;2.10;;
42666;SDS011;28280;49.646;14.130;2023-04-06T17:47:06;2.60;;;2.00;;
42666;SDS011;28280;49.646;14.130;2023-04-06T17:57:28;4.07;;;2.22;;
42666;SDS011;28280;49.646;14.130;2023-04-06T18:07:49;2.55;;;1.85;;
42666;SDS011;28280;49.646;14.130;2023-04-06T18:18:12;3.53;;;1.92;;
42666;SDS011;28280;49.646;14.130;2023-04-06T18:28:33;3.67;;;2.38;;
42666;SDS011;28280;49.646;14.130;2023-04-06T18:38:54;5.43;;;2.60;;
42666;SDS011;28280;49.646;14.130;2023-04-06T18:49:15;3.85;;;2.53;;
42666;SDS011;28280;49.646;14.130;2023-04-06T18:59:37;3.88;;;2.65;;
42666;SDS011;28280;49.646;14.130;2023-04-06T19:09:58;4.43;;;2.90;;
42666;SDS011;28280;49.646;14.130;2023-04-06T19:20:19;4.65;;;2.30;;
42666;SDS011;28280;49.646;14.130;2023-04-06T19:30:40;3.75;;;2.15;;
42666;SDS011;28280;49.646;14.130;2023-04-06T19:41:02;4.47;;;2.65;;
42666;SDS011;28280;49.646;14.130;2023-04-06T19:51:23;3.95;;;2.72;;
42666;SDS011;28280;49.646;14.130;2023-04-06T20:01:45;4.97;;;2.53;;
42666;SDS011;28280;49.646;14.130;2023-04-06T20:12:06;5.38;;;2.72;;
42666;SDS011;28280;49.646;14.130;2023-04-06T20:22:27;6.32;;;2.72;;
42666;SDS011;28280;49.646;14.130;2023-04-06T20:32:49;5.07;;;2.90;;
42666;SDS011;28280;49.646;14.130;2023-04-06T20:43:10;4.68;;;2.95;;
42666;SDS011;28280;49.646;14.130;2023-04-06T20:53:31;5.57;;;3.05;;
42666;SDS011;28280;49.646;14.130;2023-04-06T21:03:53;4.47;;;3.08;;
42666;SDS011;28280;49.646;14.130;2023-04-06T21:14:14;6.20;;;2.95;;
42666;SDS011;28280;49.646;14.130;2023-04-06T21:24:38;7.68;;;3.22;;
42666;SDS011;28280;49.646;14.130;2023-04-06T21:34:59;5.18;;;2.85;;
42666;SDS011;28280;49.646;14.130;2023-04-06T21:45:20;6.72;;;3.38;;
42666;SDS011;28280;49.646;14.130;2023-04-06T21:55:44;5.35;;;2.92;;
42666;SDS011;28280;49.646;14.130;2023-04-06T22:06:06;6.97;;;3.95;;
42666;SDS011;28280;49.646;14.130;2023-04-06T22:16:27;5.40;;;3.05;;
42666;SDS011;28280;49.646;14.130;2023-04-06T22:26:49;6.68;;;3.13;;
42666;SDS011;28280;49.646;14.130;2023-04-06T22:37:10;5.65;;;3.15;;
42666;SDS011;28280;49.646;14.130;2023-04-06T22:47:31;6.70;;;3.28;;
42666;SDS011;28280;49.646;14.130;2023-04-06T22:57:53;5.57;;;2.92;;
42666;SDS011;28280;49.646;14.130;2023-04-06T23:08:14;5.15;;;3.20;;
42666;SDS011;28280;49.646;14.130;2023-04-06T23:18:35;7.68;;;3.30;;
42666;SDS011;28280;49.646;14.130;2023-04-06T23:28:57;6.35;;;3.25;;
42666;SDS011;28280;49.646;14.130;2023-04-06T23:39:18;6.43;;;3.60;;
42666;SDS011;28280;49.646;14.130;2023-04-06T23:49:39;6.80;;;3.70;;
